Time;durP1;ratioP1;P1;durP2;ratioP2;P2;SDS_P1;SDS_P2;PMS_P1;PMS_P2;Temp;Humidity;BMP_temperature;BMP_pressure;BME280_temperature;BME280_humidity;BME280_pressure;Samples;Min_cycle;Max_cycle;Signal;HPM_P1;HPM_P2
2024/01/01 00:01:26;;;;;;;16.17;9.32;;;5.80;99.90;;;;;;4938248;29;20204;-86
2024/01/01 00:03:52;;;;;;;14.80;11.10;;;5.80;99.90;;;;;;4939009;29;20181;-86
2024/01/01 00:06:17;;;;;;;11.20;8.13;;;5.80;99.90;;;;;;4938107;29;20178;-85
2024/01/01 00:08:43;;;;;;;8.82;7.70;;;5.80;99.90;;;;;;4938342;29;20202;-85
2024/01/01 00:11:08;;;;;;;8.57;6.70;;;5.80;99.90;;;;;;4937728;29;20181;-86
2024/01/01 00:13:34;;;;;;;11.05;7.47;;;5.70;99.90;;;;;;4938593;29;20181;-86
2024/01/01 00:15:59;;;;;;;9.98;7.00;;;5.70;99.90;;;;;;4937903;29;20189;-86
2024/01/01 00:18:25;;;;;;;10.98;6.88;;;5.70;99.90;;;;;;4937963;29;20205;-86
2024/01/01 00:20:51;;;;;;;11.45;7.00;;;5.70;99.90;;;;;;4938249;29;20192;-86
2024/01/01 00:23:16;;;;;;;9.68;6.45;;;5.70;99.90;;;;;;4939827;29;20197;-86
2024/01/01 00:25:42;;;;;;;10.77;6.93;;;5.70;99.90;;;;;;4941570;29;20186;-86
2024/01/01 00:28:07;;;;;;;9.95;7.45;;;5.70;99.90;;;;;;4941216;28;20181;-85
2024/01/01 00:30:34;;;;;;;10.98;7.13;;;5.70;99.90;;;;;;4941791;29;20181;-85
2024/01/01 00:32:59;;;;;;;10.65;7.20;;;5.80;99.90;;;;;;4941291;29;20209;-86
2024/01/01 00:35:25;;;;;;;13.43;7.53;;;5.70;99.90;;;;;;4941076;29;20201;-85
2024/01/01 00:37:51;;;;;;;14.77;7.37;;;5.80;99.90;;;;;;4941204;29;20182;-85
2024/01/01 00:40:16;;;;;;;12.80;8.13;;;5.80;99.90;;;;;;4941414;29;20186;-85
2024/01/01 00:42:47;;;;;;;11.00;7.40;;;5.70;99.90;;;;;;4941396;29;20182;-85
2024/01/01 00:45:12;;;;;;;11.88;8.43;;;5.80;99.90;;;;;;4942095;29;20210;-85
2024/01/01 00:47:38;;;;;;;12.17;8.20;;;5.80;99.90;;;;;;4941203;29;20189;-85
2024/01/01 00:50:04;;;;;;;18.58;9.88;;;5.80;99.90;;;;;;4940924;29;20208;-86
2024/01/01 00:52:30;;;;;;;13.70;9.48;;;5.80;99.90;;;;;;4941658;29;20190;-86
2024/01/01 00:54:56;;;;;;;12.93;9.80;;;5.80;99.90;;;;;;4941498;29;20206;-86
2024/01/01 00:57:21;;;;;;;12.00;9.98;;;5.80;99.90;;;;;;4941591;29;20193;-85
2024/01/01 00:59:47;;;;;;;12.63;9.20;;;5.80;99.90;;;;;;4940635;29;20233;-85
2024/01/01 01:02:12;;;;;;;16.00;10.27;;;5.80;99.90;;;;;;4941051;29;20174;-85
2024/01/01 01:04:42;;;;;;;11.32;9.13;;;5.80;99.90;;;;;;4940676;29;20193;-85
2024/01/01 01:07:07;;;;;;;12.48;9.43;;;5.80;99.90;;;;;;4941014;29;20276;-85
2024/01/01 01:09:33;;;;;;;13.60;9.52;;;5.80;99.90;;;;;;4940557;29;20221;-85
2024/01/01 01:11:58;;;;;;;14.98;9.80;;;5.80;99.90;;;;;;4941498;29;20185;-86
2024/01/01 01:14:24;;;;;;;12.67;9.33;;;5.80;99.90;;;;;;4940609;29;20584;-86
2024/01/01 01:16:50;;;;;;;12.13;9.52;;;5.80;99.90;;;;;;4941326;29;20181;-85
2024/01/01 01:19:15;;;;;;;15.77;9.65;;;5.80;99.90;;;;;;4940248;29;20217;-85
2024/01/01 01:21:41;;;;;;;14.82;10.90;;;5.90;99.90;;;;;;4941085;29;20184;-85
2024/01/01 01:24:07;;;;;;;16.48;11.18;;;5.90;99.90;;;;;;4940199;29;20216;-86
2024/01/01 01:26:32;;;;;;;14.10;11.25;;;5.90;99.90;;;;;;4940265;29;20213;-85
2024/01/01 01:28:58;;;;;;;16.73;11.55;;;5.90;99.90;;;;;;4940440;29;20205;-85
2024/01/01 01:31:23;;;;;;;14.45;11.07;;;5.90;99.90;;;;;;4940192;29;20336;-86
2024/01/01 01:33:51;;;;;;;15.30;11.75;;;5.90;99.90;;;;;;4940503;29;20236;-85
2024/01/01 01:36:17;;;;;;;17.27;11.25;;;5.90;99.90;;;;;;4940220;29;20177;-86
2024/01/01 01:38:42;;;;;;;17.38;12.38;;;5.90;99.90;;;;;;4940277;29;20231;-86
2024/01/01 01:41:08;;;;;;;17.50;11.35;;;5.90;99.90;;;;;;4940315;29;20186;-85
2024/01/01 01:43:34;;;;;;;14.93;11.00;;;5.90;99.90;;;;;;4939930;29;20287;-85
2024/01/01 01:46:00;;;;;;;16.58;11.35;;;5.90;99.90;;;;;;4940197;29;20189;-85
2024/01/01 01:48:27;;;;;;;20.35;11.45;;;5.90;99.90;;;;;;4940146;29;20205;-86
2024/01/01 01:50:55;;;;;;;17.50;11.45;;;5.90;99.90;;;;;;4939918;29;20200;-85
2024/01/01 01:53:24;;;;;;;16.25;11.65;;;5.90;99.90;;;;;;4940137;29;20196;-85
2024/01/01 01:55:52;;;;;;;16.20;11.45;;;5.90;99.90;;;;;;4940382;29;20209;-86
2024/01/01 01:58:17;;;;;;;15.20;10.68;;;5.90;99.90;;;;;;4939881;29;20206;-86
2024/01/01 02:18:51;;;;;;;18.67;12.10;;;5.80;99.90;;;;;;5600638;22;20270;-86
2024/01/01 02:21:16;;;;;;;16.08;10.95;;;5.90;99.90;;;;;;4958474;28;20185;-86
2024/01/01 02:23:42;;;;;;;16.30;10.18;;;5.80;99.90;;;;;;4958651;28;20313;-86
2024/01/01 02:26:07;;;;;;;14.73;10.30;;;5.90;99.90;;;;;;4958686;28;20185;-86
2024/01/01 02:28:33;;;;;;;13.10;9.63;;;5.80;99.90;;;;;;4958376;28;20228;-86
2024/01/01 02:30:58;;;;;;;12.20;9.57;;;5.80;99.90;;;;;;4959091;28;20181;-86
2024/01/01 02:33:24;;;;;;;12.20;8.88;;;5.80;99.90;;;;;;4958619;28;20231;-86
2024/01/01 02:35:50;;;;;;;13.57;9.13;;;5.80;99.90;;;;;;4958263;28;20220;-86
2024/01/01 02:38:15;;;;;;;10.90;8.32;;;5.80;99.90;;;;;;4960368;28;20197;-86
2024/01/01 02:40:41;;;;;;;13.40;9.07;;;5.90;99.90;;;;;;4974046;28;20228;-86
2024/01/01 02:43:07;;;;;;;13.00;8.35;;;5.80;99.90;;;;;;4974488;28;20188;-86
2024/01/01 02:45:33;;;;;;;15.27;8.75;;;5.90;99.90;;;;;;4973723;28;20316;-86
2024/01/01 02:47:59;;;;;;;14.95;8.07;;;5.90;99.90;;;;;;4973815;28;20295;-86
2024/01/01 02:50:29;;;;;;;13.18;8.38;;;5.90;99.90;;;;;;4973993;28;20311;-86
2024/01/01 02:52:54;;;;;;;11.52;7.90;;;5.90;99.90;;;;;;4974464;28;20181;-86
2024/01/01 02:55:20;;;;;;;9.90;7.20;;;5.80;99.90;;;;;;4974137;28;20212;-86
2024/01/01 02:57:45;;;;;;;10.88;7.32;;;5.80;99.90;;;;;;4973784;28;20275;-86
2024/01/01 03:00:14;;;;;;;10.30;7.70;;;5.80;99.90;;;;;;4974605;28;20311;-86
2024/01/01 03:02:40;;;;;;;13.50;7.45;;;5.80;99.90;;;;;;4973751;28;20200;-86
2024/01/01 03:05:06;;;;;;;12.38;7.05;;;5.80;99.90;;;;;;4974035;28;20189;-86
2024/01/01 03:07:32;;;;;;;11.15;7.50;;;5.80;99.90;;;;;;4974166;28;20193;-86
2024/01/01 03:09:58;;;;;;;13.70;7.60;;;5.80;99.90;;;;;;4973508;28;20187;-86
2024/01/01 03:12:23;;;;;;;11.38;7.47;;;5.70;99.90;;;;;;4973923;28;20188;-86
2024/01/01 03:14:49;;;;;;;13.82;7.82;;;5.70;99.90;;;;;;4973884;28;20259;-86
2024/01/01 03:17:15;;;;;;;9.32;6.85;;;5.60;99.90;;;;;;4973912;28;20177;-86
2024/01/01 03:19:41;;;;;;;12.80;7.15;;;5.60;99.90;;;;;;4973807;28;20213;-86
2024/01/01 03:22:06;;;;;;;11.13;7.43;;;5.60;99.90;;;;;;4974613;28;20192;-86
2024/01/01 03:24:32;;;;;;;11.07;7.33;;;5.60;99.90;;;;;;4973729;28;20185;-86
2024/01/01 03:26:57;;;;;;;13.03;7.27;;;5.60;99.90;;;;;;4973607;28;20184;-86
2024/01/01 03:29:23;;;;;;;11.70;7.40;;;5.70;99.90;;;;;;4973516;28;20254;-86
2024/01/01 03:31:49;;;;;;;12.40;7.32;;;5.60;99.90;;;;;;4973438;28;20219;-86
2024/01/01 03:34:14;;;;;;;11.02;7.65;;;5.70;99.90;;;;;;4973835;28;20212;-86
2024/01/01 03:36:40;;;;;;;10.80;7.50;;;5.70;99.90;;;;;;4973748;28;20188;-86
2024/01/01 03:39:05;;;;;;;12.83;7.83;;;5.80;99.90;;;;;;4973733;28;20216;-86
2024/01/01 03:41:31;;;;;;;13.45;7.80;;;5.80;99.90;;;;;;4974011;28;20181;-86
2024/01/01 03:43:56;;;;;;;12.38;8.43;;;5.80;99.90;;;;;;4973529;28;20184;-86
2024/01/01 03:46:22;;;;;;;13.07;7.85;;;5.80;99.90;;;;;;4973538;28;20180;-86
2024/01/01 03:48:48;;;;;;;14.45;8.57;;;5.70;99.90;;;;;;4973425;28;20201;-86
2024/01/01 03:51:14;;;;;;;15.25;7.95;;;5.70;99.90;;;;;;4973166;28;20183;-86
2024/01/01 03:53:40;;;;;;;16.20;8.10;;;5.70;99.90;;;;;;4973170;28;20180;-86
2024/01/01 03:56:08;;;;;;;9.50;7.35;;;5.60;99.90;;;;;;4972968;28;20228;-85
2024/01/01 03:58:34;;;;;;;11.53;6.93;;;5.60;99.90;;;;;;4977433;28;20204;-86
2024/01/01 04:01:00;;;;;;;10.57;7.75;;;5.60;99.90;;;;;;4977295;28;20203;-86
2024/01/01 04:03:25;;;;;;;11.05;7.15;;;5.50;99.90;;;;;;4976939;28;20175;-86
2024/01/01 04:05:51;;;;;;;11.13;7.80;;;5.50;99.90;;;;;;4977110;28;20188;-86
2024/01/01 04:08:16;;;;;;;10.47;8.00;;;5.40;99.90;;;;;;4976834;28;20228;-86
2024/01/01 04:10:42;;;;;;;11.30;7.90;;;5.30;99.90;;;;;;4976938;28;20597;-86
2024/01/01 04:13:08;;;;;;;13.30;7.57;;;5.30;99.90;;;;;;4977234;28;20268;-86
2024/01/01 04:15:33;;;;;;;12.77;8.37;;;5.30;99.90;;;;;;4977579;28;20204;-86
2024/01/01 04:17:59;;;;;;;14.45;8.93;;;5.30;99.90;;;;;;4977867;28;20201;-86
2024/01/01 04:20:24;;;;;;;13.85;9.20;;;5.30;99.90;;;;;;4980860;28;20264;-86
2024/01/01 04:23:10;;;;;;;14.23;9.70;;;5.30;99.90;;;;;;4979902;28;20176;-87
2024/01/01 04:25:47;;;;;;;16.25;11.20;;;5.30;99.90;;;;;;4980199;28;20188;-86
2024/01/01 04:28:12;;;;;;;20.48;12.77;;;5.30;99.90;;;;;;4981964;28;20641;-86
2024/01/01 04:30:38;;;;;;;19.27;12.27;;;5.30;99.90;;;;;;4981060;28;20215;-88
2024/01/01 04:33:04;;;;;;;18.57;12.43;;;5.40;99.90;;;;;;4980244;28;20176;-87
2024/01/01 04:35:30;;;;;;;18.27;12.47;;;5.40;99.90;;;;;;4979754;28;20215;-87
2024/01/01 04:37:56;;;;;;;16.98;11.30;;;5.40;99.90;;;;;;4979504;28;20200;-86
2024/01/01 04:40:24;;;;;;;17.90;10.27;;;5.40;99.90;;;;;;4979919;28;20181;-86
2024/01/01 04:42:50;;;;;;;18.00;11.57;;;5.40;99.90;;;;;;4979726;28;20212;-86
2024/01/01 04:45:16;;;;;;;19.35;11.45;;;5.40;99.90;;;;;;4979877;28;20184;-87
2024/01/01 04:47:41;;;;;;;17.25;11.38;;;5.40;99.90;;;;;;4980315;28;20188;-87
2024/01/01 04:50:08;;;;;;;17.63;12.30;;;5.40;99.90;;;;;;4980041;28;20188;-86
2024/01/01 04:52:34;;;;;;;18.27;11.80;;;5.40;99.90;;;;;;4980191;28;20184;-86
2024/01/01 04:55:00;;;;;;;18.35;11.82;;;5.40;99.90;;;;;;4979627;28;20199;-86
2024/01/01 04:57:26;;;;;;;20.63;12.80;;;5.40;99.90;;;;;;4979267;28;20275;-86
2024/01/01 04:59:52;;;;;;;16.77;12.43;;;5.40;99.90;;;;;;4979491;28;20322;-86
2024/01/01 05:02:17;;;;;;;19.75;12.30;;;5.40;99.90;;;;;;4980139;28;20176;-86
2024/01/01 05:04:43;;;;;;;19.02;11.95;;;5.40;99.90;;;;;;4979162;28;20180;-86
2024/01/01 05:07:09;;;;;;;21.23;11.77;;;5.40;99.90;;;;;;4979470;28;20180;-86
2024/01/01 05:09:34;;;;;;;19.20;11.63;;;5.40;99.90;;;;;;4978500;28;20282;-86
2024/01/01 05:12:00;;;;;;;17.92;11.50;;;5.50;99.90;;;;;;4979093;28;20238;-86
2024/01/01 05:14:25;;;;;;;17.80;11.25;;;5.50;99.90;;;;;;4978993;28;20204;-86
2024/01/01 05:16:51;;;;;;;17.55;10.73;;;5.50;99.90;;;;;;4978958;28;20180;-86
2024/01/01 05:19:17;;;;;;;14.63;10.57;;;5.50;99.90;;;;;;4978739;28;20362;-86
2024/01/01 05:21:42;;;;;;;15.33;9.97;;;5.50;99.90;;;;;;4979287;28;20184;-86
2024/01/01 05:24:08;;;;;;;15.40;10.35;;;5.50;99.90;;;;;;4979606;28;20183;-86
2024/01/01 05:26:34;;;;;;;14.77;10.15;;;5.50;99.90;;;;;;4979455;28;20267;-86
2024/01/01 05:28:59;;;;;;;13.07;9.90;;;5.50;99.90;;;;;;4979132;28;20207;-86
2024/01/01 05:31:25;;;;;;;13.57;9.95;;;5.50;99.90;;;;;;4979637;28;20191;-86
2024/01/01 05:33:51;;;;;;;14.15;9.60;;;5.50;99.90;;;;;;4979554;28;20192;-86
2024/01/01 05:36:16;;;;;;;15.27;10.10;;;5.50;99.90;;;;;;4978990;28;20177;-86
2024/01/01 05:38:42;;;;;;;13.57;10.27;;;5.50;99.90;;;;;;4978932;28;20231;-86
2024/01/01 05:41:11;;;;;;;14.82;10.07;;;5.50;99.90;;;;;;4978706;28;20263;-86
2024/01/01 05:43:37;;;;;;;14.43;9.68;;;5.50;99.90;;;;;;4978994;28;20184;-86
2024/01/01 05:46:03;;;;;;;19.63;10.98;;;5.50;99.90;;;;;;4978716;28;20246;-86
2024/01/01 05:48:28;;;;;;;18.35;11.30;;;5.50;99.90;;;;;;4978800;28;20214;-86
2024/01/01 05:50:54;;;;;;;19.13;11.60;;;5.50;99.90;;;;;;4979777;28;20193;-86
2024/01/01 05:53:20;;;;;;;17.02;11.85;;;5.40;99.90;;;;;;4978326;28;20188;-86
2024/01/01 05:55:45;;;;;;;18.67;12.83;;;5.30;99.90;;;;;;4978703;28;20204;-86
2024/01/01 05:58:11;;;;;;;20.30;12.90;;;5.20;99.90;;;;;;4978687;28;20207;-86
2024/01/01 06:00:38;;;;;;;16.90;12.30;;;5.20;99.90;;;;;;4978182;28;20184;-86
2024/01/01 06:03:04;;;;;;;16.83;12.00;;;5.20;99.90;;;;;;4979352;28;20180;-86
2024/01/01 06:05:33;;;;;;;17.50;13.13;;;5.30;99.90;;;;;;4978785;28;20188;-86
2024/01/01 06:08:03;;;;;;;19.00;13.17;;;5.30;99.90;;;;;;4978396;28;20295;-86
2024/01/01 06:10:32;;;;;;;21.97;14.40;;;5.30;99.90;;;;;;4978460;28;20244;-86
2024/01/01 06:12:58;;;;;;;22.10;14.10;;;5.30;99.90;;;;;;4978146;28;20669;-86
2024/01/01 06:15:25;;;;;;;22.58;13.75;;;5.30;99.90;;;;;;4978693;28;20204;-86
2024/01/01 06:17:52;;;;;;;20.30;14.30;;;5.30;99.90;;;;;;4977916;28;20181;-86
2024/01/01 06:20:18;;;;;;;23.80;15.03;;;5.40;99.90;;;;;;4977834;28;20192;-86
2024/01/01 06:22:43;;;;;;;23.57;15.50;;;5.40;99.90;;;;;;4978581;28;20199;-86
2024/01/01 06:25:10;;;;;;;24.73;16.17;;;5.40;99.90;;;;;;4978854;28;20176;-86
2024/01/01 06:27:36;;;;;;;21.02;15.23;;;5.40;99.90;;;;;;4977601;28;20195;-86
2024/01/01 06:30:03;;;;;;;20.85;13.63;;;5.40;99.90;;;;;;4978090;28;20654;-86
2024/01/01 06:32:29;;;;;;;19.75;13.75;;;5.40;99.90;;;;;;4978132;28;20184;-87
2024/01/01 06:34:54;;;;;;;21.33;13.30;;;5.40;99.90;;;;;;4977899;28;20255;-87
2024/01/01 06:37:20;;;;;;;18.98;13.15;;;5.50;99.90;;;;;;4978031;28;20180;-87
2024/01/01 06:39:46;;;;;;;18.55;13.38;;;5.50;99.90;;;;;;4977594;28;20693;-86
2024/01/01 06:42:12;;;;;;;20.63;14.20;;;5.50;99.90;;;;;;4977673;28;20180;-86
2024/01/01 06:44:40;;;;;;;19.73;12.45;;;5.50;99.90;;;;;;4977990;28;20192;-86
2024/01/01 06:47:06;;;;;;;22.77;13.55;;;5.40;99.90;;;;;;4977294;28;20191;-86
2024/01/01 06:49:31;;;;;;;20.40;13.53;;;5.40;99.90;;;;;;4977228;28;20204;-86
2024/01/01 06:51:57;;;;;;;19.20;13.57;;;5.40;99.90;;;;;;4977567;28;20192;-86
2024/01/01 06:54:23;;;;;;;18.33;13.98;;;5.40;99.90;;;;;;4978194;28;20207;-86
2024/01/01 06:56:49;;;;;;;18.80;12.88;;;5.30;99.90;;;;;;4977092;28;20286;-86
2024/01/01 06:59:16;;;;;;;19.35;12.98;;;5.40;99.90;;;;;;4977287;28;20192;-86
2024/01/01 07:01:43;;;;;;;20.08;11.95;;;5.40;99.90;;;;;;4977290;28;20255;-86
2024/01/01 07:04:09;;;;;;;19.80;12.10;;;5.30;99.90;;;;;;4976987;28;20190;-86
2024/01/01 07:06:36;;;;;;;16.63;11.48;;;5.30;99.90;;;;;;4976995;28;20187;-86
2024/01/01 07:09:02;;;;;;;18.10;10.48;;;5.30;99.90;;;;;;4976872;28;20245;-86
2024/01/01 07:11:28;;;;;;;19.23;11.68;;;5.30;99.90;;;;;;4977242;28;20259;-86
2024/01/01 07:13:53;;;;;;;20.63;11.65;;;5.30;99.90;;;;;;4977184;28;20215;-86
2024/01/01 07:16:19;;;;;;;16.20;9.82;;;5.30;99.90;;;;;;4977649;28;20663;-86
2024/01/01 07:18:46;;;;;;;16.33;10.35;;;5.20;99.90;;;;;;4977454;28;20274;-86
2024/01/01 07:21:11;;;;;;;20.10;10.03;;;5.20;99.90;;;;;;4976793;28;20183;-86
2024/01/01 07:23:37;;;;;;;16.37;9.97;;;5.20;99.90;;;;;;4976878;28;20176;-86
2024/01/01 07:26:03;;;;;;;18.93;9.50;;;5.10;99.90;;;;;;4977001;28;20210;-86
2024/01/01 07:28:28;;;;;;;12.73;9.00;;;5.10;99.90;;;;;;4977604;28;20212;-86
2024/01/01 07:30:56;;;;;;;19.15;9.20;;;5.10;99.90;;;;;;4976379;28;20271;-86
2024/01/01 07:33:21;;;;;;;13.53;8.53;;;5.20;99.90;;;;;;4976487;28;20195;-86
2024/01/01 07:35:47;;;;;;;9.88;7.57;;;5.20;99.90;;;;;;4976975;28;20680;-86
2024/01/01 07:38:12;;;;;;;14.57;8.40;;;5.30;99.90;;;;;;4976638;28;20216;-86
2024/01/01 07:40:38;;;;;;;17.43;8.77;;;5.30;99.90;;;;;;4976588;28;20230;-86
2024/01/01 07:43:04;;;;;;;16.88;7.68;;;5.30;99.90;;;;;;4976748;28;20172;-86
2024/01/01 07:45:29;;;;;;;12.55;7.53;;;5.30;99.90;;;;;;4977652;28;20186;-86
2024/01/01 07:47:55;;;;;;;12.73;6.97;;;5.30;99.90;;;;;;4976480;28;20196;-86
2024/01/01 07:50:21;;;;;;;12.93;7.13;;;5.30;99.90;;;;;;4976507;28;20191;-86
2024/01/01 07:52:51;;;;;;;11.98;6.82;;;5.40;99.90;;;;;;4976389;28;20184;-86
2024/01/01 07:55:18;;;;;;;12.63;7.17;;;5.30;99.90;;;;;;4976283;28;20292;-87
2024/01/01 07:57:46;;;;;;;15.23;7.35;;;5.30;99.90;;;;;;4976265;28;20172;-87
2024/01/01 08:00:12;;;;;;;14.15;7.05;;;5.30;99.90;;;;;;4976749;28;20247;-87
2024/01/01 08:02:38;;;;;;;12.60;6.68;;;5.30;99.90;;;;;;4976701;28;20176;-87
2024/01/01 08:05:04;;;;;;;11.57;6.60;;;5.30;99.90;;;;;;4976250;28;20191;-87
2024/01/01 08:07:30;;;;;;;16.20;7.25;;;5.30;99.90;;;;;;4976559;28;20212;-86
2024/01/01 08:09:55;;;;;;;14.37;6.90;;;5.30;99.90;;;;;;4976652;28;20243;-87
2024/01/01 08:12:21;;;;;;;15.23;6.13;;;5.30;99.90;;;;;;4976222;28;20187;-87
2024/01/01 08:14:47;;;;;;;14.57;7.17;;;5.30;99.90;;;;;;4976052;28;20218;-87
2024/01/01 08:17:13;;;;;;;12.37;7.37;;;5.40;99.90;;;;;;4976577;28;20183;-87
2024/01/01 08:19:39;;;;;;;9.57;6.40;;;5.40;99.90;;;;;;4976152;28;20215;-88
2024/01/01 08:22:04;;;;;;;15.98;10.57;;;5.50;99.90;;;;;;4976209;28;20180;-87
2024/01/01 08:24:30;;;;;;;10.02;5.25;;;5.50;99.90;;;;;;4976430;28;20778;-87
2024/01/01 08:26:56;;;;;;;10.60;4.63;;;5.60;99.90;;;;;;4976123;28;20184;-87
2024/01/01 08:29:22;;;;;;;11.27;5.53;;;5.60;99.90;;;;;;4976256;28;20226;-87
2024/01/01 08:31:48;;;;;;;9.88;3.83;;;5.70;99.90;;;;;;4976494;28;20195;-87
2024/01/01 08:34:13;;;;;;;7.35;3.35;;;5.80;99.90;;;;;;4975991;28;20254;-87
2024/01/01 08:36:39;;;;;;;7.63;3.47;;;5.90;99.90;;;;;;4976406;28;20184;-87
2024/01/01 08:39:05;;;;;;;9.38;3.67;;;5.90;99.90;;;;;;4975940;28;20200;-87
2024/01/01 08:41:30;;;;;;;7.15;2.78;;;5.90;99.90;;;;;;4976278;28;20323;-87
2024/01/01 08:43:59;;;;;;;7.10;2.53;;;5.90;99.90;;;;;;4977501;28;20180;-87
2024/01/01 08:46:25;;;;;;;8.18;2.90;;;6.00;99.90;;;;;;4979745;28;20180;-88
2024/01/01 08:48:52;;;;;;;8.05;2.90;;;6.10;99.90;;;;;;4979354;28;20196;-87
2024/01/01 08:51:18;;;;;;;14.02;5.93;;;6.10;99.90;;;;;;4979399;28;20177;-87
2024/01/01 08:53:44;;;;;;;30.10;19.90;;;6.20;99.90;;;;;;4979518;28;20187;-87
2024/01/01 08:56:09;;;;;;;31.13;16.98;;;6.20;99.90;;;;;;4979258;28;20585;-87
2024/01/01 08:58:35;;;;;;;24.73;13.30;;;6.20;99.90;;;;;;4979984;28;20204;-87
2024/01/01 09:01:01;;;;;;;25.77;17.10;;;6.20;99.90;;;;;;4979700;28;20207;-87
2024/01/01 09:03:27;;;;;;;17.42;10.90;;;6.20;99.90;;;;;;4980103;28;20177;-87
2024/01/01 09:05:57;;;;;;;11.15;5.57;;;6.20;99.90;;;;;;4979481;28;20275;-87
2024/01/01 09:08:23;;;;;;;8.80;6.22;;;6.20;99.90;;;;;;4979113;28;20215;-87
2024/01/01 09:10:49;;;;;;;11.15;5.57;;;6.30;99.90;;;;;;4979743;28;20180;-87
2024/01/01 09:13:15;;;;;;;11.35;6.63;;;6.40;99.90;;;;;;4979284;28;20184;-87
2024/01/01 09:15:40;;;;;;;14.30;8.50;;;6.50;99.90;;;;;;4978985;28;20204;-87
2024/01/01 09:18:07;;;;;;;10.50;5.45;;;6.50;99.90;;;;;;4978790;28;20327;-87
2024/01/01 09:20:33;;;;;;;8.95;4.45;;;6.40;99.90;;;;;;4979940;28;20271;-88
2024/01/01 09:23:00;;;;;;;10.10;6.25;;;6.40;99.90;;;;;;4978753;28;20297;-87
2024/01/01 09:25:25;;;;;;;11.27;5.70;;;6.40;99.90;;;;;;4979097;28;20188;-88
2024/01/01 09:27:53;;;;;;;8.70;5.35;;;6.40;99.90;;;;;;4979415;28;20187;-87
2024/01/01 09:30:18;;;;;;;11.10;5.45;;;6.40;99.90;;;;;;4979479;28;20224;-87
2024/01/01 09:32:44;;;;;;;6.22;3.50;;;6.30;99.90;;;;;;4978682;28;20259;-87
2024/01/01 09:35:10;;;;;;;7.50;3.30;;;6.40;99.90;;;;;;4978485;28;20239;-87
2024/01/01 09:37:37;;;;;;;8.55;4.55;;;6.40;99.90;;;;;;4978461;28;20211;-87
2024/01/01 09:40:04;;;;;;;10.98;3.60;;;6.50;99.90;;;;;;4979408;28;20190;-87
2024/01/01 09:42:29;;;;;;;10.43;3.42;;;6.50;99.90;;;;;;4978429;28;20179;-87
2024/01/01 09:44:55;;;;;;;9.13;3.40;;;6.50;99.90;;;;;;4978475;28;20181;-87
2024/01/01 09:47:21;;;;;;;7.25;2.88;;;6.50;99.90;;;;;;4978759;28;20268;-87
2024/01/01 09:49:46;;;;;;;7.03;2.65;;;6.50;99.90;;;;;;4978444;28;20200;-87
2024/01/01 09:52:16;;;;;;;7.00;2.60;;;6.60;99.90;;;;;;4978232;28;20181;-87
2024/01/01 09:54:42;;;;;;;5.63;2.50;;;6.50;99.90;;;;;;4978316;28;20208;-87
2024/01/01 09:57:08;;;;;;;10.30;2.80;;;6.50;99.90;;;;;;4978264;28;20222;-87
2024/01/01 09:59:37;;;;;;;6.80;2.60;;;6.50;99.90;;;;;;4978630;28;20202;-87
2024/01/01 10:02:04;;;;;;;8.80;3.00;;;6.40;99.90;;;;;;4978371;28;20646;-87
2024/01/01 10:04:30;;;;;;;9.43;2.75;;;6.40;99.90;;;;;;4978400;28;20180;-87
2024/01/01 10:06:58;;;;;;;5.65;2.38;;;6.50;99.90;;;;;;4978117;28;20666;-88
2024/01/01 10:09:24;;;;;;;9.93;2.95;;;6.50;99.90;;;;;;4978541;28;20200;-87
2024/01/01 10:11:49;;;;;;;6.05;2.50;;;6.50;99.90;;;;;;4978083;28;20233;-87
2024/01/01 10:14:15;;;;;;;10.18;2.85;;;6.50;99.90;;;;;;4978038;28;20181;-87
2024/01/01 10:16:42;;;;;;;8.70;2.53;;;6.60;99.90;;;;;;4978154;28;20207;-87
2024/01/01 10:19:08;;;;;;;8.50;2.83;;;6.60;99.90;;;;;;4978434;28;20212;-87
2024/01/01 10:21:35;;;;;;;6.55;2.90;;;6.90;99.90;;;;;;4978669;28;20255;-87
2024/01/01 10:24:17;;;;;;;8.15;2.92;;;7.00;99.90;;;;;;4978070;28;20176;-87
2024/01/01 10:27:02;;;;;;;13.60;2.78;;;7.10;99.90;;;;;;4977789;28;20175;-87
2024/01/01 10:29:28;;;;;;;8.48;3.35;;;7.20;99.90;;;;;;4978357;28;20201;-88
2024/01/01 10:31:54;;;;;;;8.02;4.05;;;7.20;99.90;;;;;;4977531;28;20172;-87
2024/01/01 10:34:21;;;;;;;11.93;3.05;;;7.20;99.90;;;;;;4978065;28;20219;-88
2024/01/01 10:36:46;;;;;;;8.52;3.13;;;7.10;99.90;;;;;;4977462;28;20180;-87
2024/01/01 10:39:14;;;;;;;11.65;3.13;;;7.20;99.90;;;;;;4978120;28;20200;-87
2024/01/01 10:41:39;;;;;;;10.90;2.85;;;7.30;99.90;;;;;;4977477;28;20647;-87
2024/01/01 10:44:09;;;;;;;8.30;2.70;;;7.40;99.90;;;;;;4994812;28;20180;-87
2024/01/01 10:46:45;;;;;;;10.85;2.88;;;7.50;99.90;;;;;;4978252;28;20176;-88
2024/01/01 10:49:16;;;;;;;11.88;2.72;;;7.50;99.90;;;;;;4977550;28;20238;-87
2024/01/01 10:52:01;;;;;;;10.02;3.03;;;7.40;99.90;;;;;;4977326;28;20180;-88
2024/01/01 10:54:54;;;;;;;9.02;2.67;;;7.40;99.90;;;;;;4977185;28;20221;-87
2024/01/01 10:57:45;;;;;;;10.90;2.65;;;7.30;99.90;;;;;;4977158;28;20184;-87
2024/01/01 11:00:36;;;;;;;8.90;2.60;;;7.30;99.90;;;;;;4977017;28;20666;-87
2024/01/01 11:03:03;;;;;;;8.88;2.80;;;7.30;99.90;;;;;;4977204;28;20225;-87
2024/01/01 11:05:33;;;;;;;9.88;2.75;;;7.30;99.90;;;;;;4977628;28;20184;-87
2024/01/01 11:08:00;;;;;;;12.07;5.60;;;7.30;99.90;;;;;;4976375;28;20205;-87
2024/01/01 11:10:42;;;;;;;14.85;7.55;;;7.20;99.90;;;;;;4977191;28;20196;-88
2024/01/01 11:13:26;;;;;;;7.43;2.90;;;7.10;99.90;;;;;;4977135;28;20183;-88
2024/01/01 11:15:58;;;;;;;10.43;2.83;;;7.00;99.90;;;;;;4977604;28;20426;-88
2024/01/01 11:18:35;;;;;;;11.75;2.63;;;7.00;99.90;;;;;;4977257;28;20215;-88
2024/01/01 11:21:01;;;;;;;10.82;2.50;;;7.00;99.90;;;;;;4976933;28;20179;-88
2024/01/01 11:23:48;;;;;;;9.23;2.53;;;7.10;99.90;;;;;;4977044;28;20176;-88
2024/01/01 11:26:22;;;;;;;7.40;2.40;;;7.30;99.90;;;;;;4977304;28;20519;-88
2024/01/01 11:29:06;;;;;;;11.05;3.38;;;7.40;99.90;;;;;;4977087;28;20235;-88
2024/01/01 11:31:33;;;;;;;21.88;8.10;;;7.40;99.90;;;;;;4976709;28;20187;-88
2024/01/01 11:34:10;;;;;;;16.58;7.65;;;7.40;99.90;;;;;;4976553;28;20180;-88
2024/01/01 11:36:40;;;;;;;18.30;8.98;;;7.40;99.90;;;;;;4974042;28;20184;-87
2024/01/01 11:39:07;;;;;;;15.98;7.70;;;7.30;99.90;;;;;;4942197;28;20283;-87
2024/01/01 11:41:33;;;;;;;15.30;6.07;;;7.20;99.90;;;;;;4957273;28;20184;-87
2024/01/01 11:44:13;;;;;;;15.45;9.20;;;7.20;99.90;;;;;;4957300;28;20231;-87
2024/01/01 11:46:39;;;;;;;13.23;5.88;;;7.20;99.90;;;;;;4957271;28;20227;-87
2024/01/01 11:49:05;;;;;;;15.43;8.85;;;7.10;99.90;;;;;;4957221;28;20325;-87
2024/01/01 11:51:46;;;;;;;19.27;11.27;;;7.10;99.90;;;;;;4957112;28;20251;-87
2024/01/01 11:54:11;;;;;;;16.23;8.35;;;7.10;99.90;;;;;;4957576;28;20172;-88
2024/01/01 11:56:38;;;;;;;18.10;10.70;;;7.20;99.90;;;;;;4958246;28;20536;-87
2024/01/01 11:59:06;;;;;;;18.05;7.20;;;7.30;99.90;;;;;;4956942;28;20208;-87
2024/01/01 12:01:32;;;;;;;12.65;6.22;;;7.30;99.90;;;;;;4957478;28;20240;-87
2024/01/01 12:04:02;;;;;;;14.85;5.88;;;7.40;99.90;;;;;;4957058;28;20173;-87
2024/01/01 12:06:28;;;;;;;12.65;4.80;;;7.50;99.90;;;;;;4957988;28;20180;-87
2024/01/01 12:09:32;;;;;;;12.00;5.30;;;7.50;99.90;;;;;;4956907;28;20209;-87
2024/01/01 12:12:12;;;;;;;16.42;5.93;;;7.40;99.90;;;;;;4957825;28;20201;-87
2024/01/01 12:14:39;;;;;;;10.30;3.97;;;7.30;99.90;;;;;;4957786;28;20201;-87
2024/01/01 12:17:05;;;;;;;12.70;4.13;;;7.20;99.90;;;;;;4957078;28;20204;-87
2024/01/01 12:19:31;;;;;;;18.63;4.50;;;7.10;99.90;;;;;;4960979;28;20212;-87
2024/01/01 12:21:57;;;;;;;13.50;3.92;;;7.00;99.90;;;;;;4960783;28;20188;-87
2024/01/01 12:24:22;;;;;;;15.02;6.82;;;6.90;99.90;;;;;;4961055;28;20611;-87
2024/01/01 12:26:52;;;;;;;17.35;5.20;;;6.90;99.90;;;;;;4961558;28;20189;-87
2024/01/01 12:29:19;;;;;;;11.32;4.45;;;6.80;99.90;;;;;;4960325;28;20291;-87
2024/01/01 12:31:46;;;;;;;8.75;3.10;;;6.70;99.90;;;;;;4960747;28;20212;-87
2024/01/01 12:34:17;;;;;;;11.27;2.88;;;6.70;99.90;;;;;;4960700;28;20312;-87
2024/01/01 12:36:45;;;;;;;9.38;2.50;;;6.70;99.90;;;;;;4960537;28;20197;-87
2024/01/01 12:39:11;;;;;;;10.13;2.90;;;6.60;99.90;;;;;;4960264;28;20200;-87
2024/01/01 12:41:38;;;;;;;8.25;2.60;;;6.60;99.90;;;;;;4960700;28;20185;-87
2024/01/01 12:44:04;;;;;;;7.13;2.40;;;6.60;99.90;;;;;;4960591;28;20192;-87
2024/01/01 12:46:30;;;;;;;10.13;2.42;;;6.50;99.90;;;;;;4960122;28;20559;-87
2024/01/01 12:48:56;;;;;;;9.45;2.42;;;6.60;99.90;;;;;;4960127;28;20220;-87
2024/01/01 12:51:26;;;;;;;11.43;3.00;;;6.50;99.90;;;;;;4960353;28;20271;-87
2024/01/01 12:53:56;;;;;;;9.52;2.60;;;6.50;99.90;;;;;;4960296;28;20165;-87
2024/01/01 12:56:22;;;;;;;12.60;3.03;;;6.50;99.90;;;;;;4960294;28;20216;-87
2024/01/01 12:58:47;;;;;;;12.52;3.00;;;6.50;99.90;;;;;;4959803;28;20193;-87
2024/01/01 13:01:13;;;;;;;8.95;2.60;;;6.60;99.90;;;;;;4960169;28;20259;-87
2024/01/01 13:03:47;;;;;;;10.85;2.60;;;6.50;99.90;;;;;;4977150;28;20173;-87